sensor_id;sensor_type;location;lat;lon;timestamp;temperature;humidity
23550;DHT22;11953;49.010;8.608;2023-04-15T00:02:33;5.80;99.90
23550;DHT22;11953;49.010;8.608;2023-04-15T00:05:20;5.90;99.90
23550;DHT22;11953;49.010;8.608;2023-04-15T00:08:07;5.40;99.90
23550;DHT22;11953;49.010;8.608;2023-04-15T00:10:54;5.20;99.90
23550;DHT22;11953;49.010;8.608;2023-04-15T00:13:40;5.20;99.90
23550;DHT22;11953;49.010;8.608;2023-04-15T00:16:28;5.20;99.90
23550;DHT22;11953;49.010;8.608;2023-04-15T00:19:15;5.20;99.90
23550;DHT22;11953;49.010;8.608;2023-04-15T00:22:02;4.90;99.90
23550;DHT22;11953;49.010;8.608;2023-04-15T00:24:49;5.00;99.90
23550;DHT22;11953;49.010;8.608;2023-04-15T00:27:35;5.10;99.90
23550;DHT22;11953;49.010;8.608;2023-04-15T00:30:22;5.10;99.90
23550;DHT22;11953;49.010;8.608;2023-04-15T00:33:12;5.10;99.90
23550;DHT22;11953;49.010;8.608;2023-04-15T00:36:00;5.00;99.90
23550;DHT22;11953;49.010;8.608;2023-04-15T00:38:48;4.90;99.90
23550;DHT22;11953;49.010;8.608;2023-04-15T00:41:35;4.70;99.90
23550;DHT22;11953;49.010;8.608;2023-04-15T00:44:23;4.40;99.90
23550;DHT22;11953;49.010;8.608;2023-04-15T00:47:11;4.40;99.90
23550;DHT22;11953;49.010;8.608;2023-04-15T00:49:59;4.60;99.90
23550;DHT22;11953;49.010;8.608;2023-04-15T00:52:46;4.80;99.90
23550;DHT22;11953;49.010;8.608;2023-04-15T00:55:33;4.90;99.90
23550;DHT22;11953;49.010;8.608;2023-04-15T00:58:20;4.80;99.90
23550;DHT22;11953;49.010;8.608;2023-04-15T01:01:07;4.70;99.90
23550;DHT22;11953;49.010;8.608;2023-04-15T01:03:56;4.50;99.90
23550;DHT22;11953;49.010;8.608;2023-04-15T01:06:45;4.50;99.90
23550;DHT22;11953;49.010;8.608;2023-04-15T01:09:32;4.40;99.90
23550;DHT22;11953;49.010;8.608;2023-04-15T01:12:20;4.30;99.90
23550;DHT22;11953;49.010;8.608;2023-04-15T01:15:07;4.50;99.90
23550;DHT22;11953;49.010;8.608;2023-04-15T01:17:56;4.70;99.90
23550;DHT22;11953;49.010;8.608;2023-04-15T01:20:43;4.60;99.90
23550;DHT22;11953;49.010;8.608;2023-04-15T01:23:33;4.60;99.90
23550;DHT22;11953;49.010;8.608;2023-04-15T01:26:22;4.60;99.90
23550;DHT22;11953;49.010;8.608;2023-04-15T01:29:09;4.40;99.90
23550;DHT22;11953;49.010;8.608;2023-04-15T01:31:56;4.30;99.90
23550;DHT22;11953;49.010;8.608;2023-04-15T01:34:44;4.40;99.90
23550;DHT22;11953;49.010;8.608;2023-04-15T01:37:32;4.30;99.90
23550;DHT22;11953;49.010;8.608;2023-04-15T01:40:19;4.20;99.90
23550;DHT22;11953;49.010;8.608;2023-04-15T01:43:08;4.10;99.90
23550;DHT22;11953;49.010;8.608;2023-04-15T01:45:55;4.00;99.90
23550;DHT22;11953;49.010;8.608;2023-04-15T01:48:42;4.10;99.90
23550;DHT22;11953;49.010;8.608;2023-04-15T01:51:29;4.40;99.90
23550;DHT22;11953;49.010;8.608;2023-04-15T01:54:16;4.30;99.90
23550;DHT22;11953;49.010;8.608;2023-04-15T01:57:03;4.30;99.90
23550;DHT22;11953;49.010;8.608;2023-04-15T01:59:51;4.40;99.90
23550;DHT22;11953;49.010;8.608;2023-04-15T02:02:39;4.50;99.90
23550;DHT22;11953;49.010;8.608;2023-04-15T02:05:26;4.80;99.90
23550;DHT22;11953;49.010;8.608;2023-04-15T02:08:13;5.10;99.90
23550;DHT22;11953;49.010;8.608;2023-04-15T02:11:00;5.10;99.90
23550;DHT22;11953;49.010;8.608;2023-04-15T02:13:47;4.80;99.90
23550;DHT22;11953;49.010;8.608;2023-04-15T02:16:37;4.70;99.90
23550;DHT22;11953;49.010;8.608;2023-04-15T02:19:25;4.60;99.90
23550;DHT22;11953;49.010;8.608;2023-04-15T02:22:11;4.40;99.90
23550;DHT22;11953;49.010;8.608;2023-04-15T02:25:05;4.40;99.90
23550;DHT22;11953;49.010;8.608;2023-04-15T02:27:51;4.50;99.90
23550;DHT22;11953;49.010;8.608;2023-04-15T02:30:38;4.40;99.90
23550;DHT22;11953;49.010;8.608;2023-04-15T02:33:27;4.40;99.90
23550;DHT22;11953;49.010;8.608;2023-04-15T02:36:13;4.40;99.90
23550;DHT22;11953;49.010;8.608;2023-04-15T02:38:59;4.30;99.90
23550;DHT22;11953;49.010;8.608;2023-04-15T02:41:47;4.30;99.90
23550;DHT22;11953;49.010;8.608;2023-04-15T02:44:36;4.20;99.90
23550;DHT22;11953;49.010;8.608;2023-04-15T02:47:23;4.30;99.90
23550;DHT22;11953;49.010;8.608;2023-04-15T02:50:12;4.40;99.90
23550;DHT22;11953;49.010;8.608;2023-04-15T02:53:00;4.50;99.90
23550;DHT22;11953;49.010;8.608;2023-04-15T02:55:47;4.60;99.90
23550;DHT22;11953;49.010;8.608;2023-04-15T02:58:34;4.80;99.90
23550;DHT22;11953;49.010;8.608;2023-04-15T03:01:21;4.80;99.90
23550;DHT22;11953;49.010;8.608;2023-04-15T03:04:07;4.80;99.90
23550;DHT22;11953;49.010;8.608;2023-04-15T03:06:55;4.60;99.90
23550;DHT22;11953;49.010;8.608;2023-04-15T03:09:43;4.80;99.90
23550;DHT22;11953;49.010;8.608;2023-04-15T03:12:30;4.70;99.90
23550;DHT22;11953;49.010;8.608;2023-04-15T03:15:17;4.80;99.90
23550;DHT22;11953;49.010;8.608;2023-04-15T03:18:07;4.90;99.90
23550;DHT22;11953;49.010;8.608;2023-04-15T03:20:53;4.80;99.90
23550;DHT22;11953;49.010;8.608;2023-04-15T03:23:42;4.90;99.90
23550;DHT22;11953;49.010;8.608;2023-04-15T03:26:30;5.00;99.90
23550;DHT22;11953;49.010;8.608;2023-04-15T03:29:19;5.10;99.90
23550;DHT22;11953;49.010;8.608;2023-04-15T03:32:07;5.20;99.90
23550;DHT22;11953;49.010;8.608;2023-04-15T03:34:53;5.00;99.90
23550;DHT22;11953;49.010;8.608;2023-04-15T03:37:40;5.10;99.90
23550;DHT22;11953;49.010;8.608;2023-04-15T03:40:28;5.00;99.90
23550;DHT22;11953;49.010;8.608;2023-04-15T03:43:14;5.10;99.90
23550;DHT22;11953;49.010;8.608;2023-04-15T03:46:01;5.10;99.90
23550;DHT22;11953;49.010;8.608;2023-04-15T03:48:48;4.60;99.90
23550;DHT22;11953;49.010;8.608;2023-04-15T03:51:34;4.20;99.90
23550;DHT22;11953;49.010;8.608;2023-04-15T03:54:21;3.90;99.90
23550;DHT22;11953;49.010;8.608;2023-04-15T03:57:08;3.80;99.90
23550;DHT22;11953;49.010;8.608;2023-04-15T03:59:55;3.80;99.90
23550;DHT22;11953;49.010;8.608;2023-04-15T04:02:42;3.90;99.90
23550;DHT22;11953;49.010;8.608;2023-04-15T04:05:30;3.90;99.90
23550;DHT22;11953;49.010;8.608;2023-04-15T04:08:17;3.80;99.90
23550;DHT22;11953;49.010;8.608;2023-04-15T04:11:04;3.80;99.90
23550;DHT22;11953;49.010;8.608;2023-04-15T04:13:52;4.00;99.90
23550;DHT22;11953;49.010;8.608;2023-04-15T04:16:38;4.10;99.90
23550;DHT22;11953;49.010;8.608;2023-04-15T04:19:25;3.80;99.90
23550;DHT22;11953;49.010;8.608;2023-04-15T04:22:12;3.70;99.90
23550;DHT22;11953;49.010;8.608;2023-04-15T04:24:59;3.90;99.90
23550;DHT22;11953;49.010;8.608;2023-04-15T04:27:46;4.20;99.90
23550;DHT22;11953;49.010;8.608;2023-04-15T04:30:34;4.20;99.90
23550;DHT22;11953;49.010;8.608;2023-04-15T04:33:21;3.90;99.90
23550;DHT22;11953;49.010;8.608;2023-04-15T04:36:08;3.90;99.90
23550;DHT22;11953;49.010;8.608;2023-04-15T04:38:55;3.60;99.90
23550;DHT22;11953;49.010;8.608;2023-04-15T04:41:41;3.70;99.90
23550;DHT22;11953;49.010;8.608;2023-04-15T04:44:28;3.70;99.90
23550;DHT22;11953;49.010;8.608;2023-04-15T04:47:15;3.50;99.90
23550;DHT22;11953;49.010;8.608;2023-04-15T04:50:02;3.30;99.90
23550;DHT22;11953;49.010;8.608;2023-04-15T04:52:49;3.30;99.90
23550;DHT22;11953;49.010;8.608;2023-04-15T04:55:35;3.30;99.90
23550;DHT22;11953;49.010;8.608;2023-04-15T04:58:22;3.50;99.90
23550;DHT22;11953;49.010;8.608;2023-04-15T05:01:08;3.60;99.90
23550;DHT22;11953;49.010;8.608;2023-04-15T05:03:57;3.70;99.90
23550;DHT22;11953;49.010;8.608;2023-04-15T05:06:43;3.70;99.90
23550;DHT22;11953;49.010;8.608;2023-04-15T05:09:30;3.80;99.90
23550;DHT22;11953;49.010;8.608;2023-04-15T05:12:17;4.00;99.90
23550;DHT22;11953;49.010;8.608;2023-04-15T05:15:05;4.10;99.90
23550;DHT22;11953;49.010;8.608;2023-04-15T05:17:52;4.20;99.90
23550;DHT22;11953;49.010;8.608;2023-04-15T05:20:40;4.00;99.90
23550;DHT22;11953;49.010;8.608;2023-04-15T05:23:27;4.00;99.90
23550;DHT22;11953;49.010;8.608;2023-04-15T05:26:13;4.20;99.90
23550;DHT22;11953;49.010;8.608;2023-04-15T05:29:00;4.60;99.90
23550;DHT22;11953;49.010;8.608;2023-04-15T05:31:47;4.80;99.90
23550;DHT22;11953;49.010;8.608;2023-04-15T05:34:33;5.00;99.90
23550;DHT22;11953;49.010;8.608;2023-04-15T05:37:21;5.20;99.90
23550;DHT22;11953;49.010;8.608;2023-04-15T05:40:08;5.20;99.90
23550;DHT22;11953;49.010;8.608;2023-04-15T05:42:55;5.30;99.90
23550;DHT22;11953;49.010;8.608;2023-04-15T05:45:41;5.40;99.90
23550;DHT22;11953;49.010;8.608;2023-04-15T05:48:27;5.70;99.90
23550;DHT22;11953;49.010;8.608;2023-04-15T05:51:14;6.50;99.90
23550;DHT22;11953;49.010;8.608;2023-04-15T05:54:02;7.30;99.90
23550;DHT22;11953;49.010;8.608;2023-04-15T05:56:49;7.90;99.90
23550;DHT22;11953;49.010;8.608;2023-04-15T05:59:36;8.50;99.90
23550;DHT22;11953;49.010;8.608;2023-04-15T06:02:23;9.10;99.90
23550;DHT22;11953;49.010;8.608;2023-04-15T06:05:10;9.10;99.90
23550;DHT22;11953;49.010;8.608;2023-04-15T06:07:57;9.00;99.90
23550;DHT22;11953;49.010;8.608;2023-04-15T06:10:44;9.50;99.90
23550;DHT22;11953;49.010;8.608;2023-04-15T06:13:31;10.20;99.90
23550;DHT22;11953;49.010;8.608;2023-04-15T06:16:18;10.90;99.90
23550;DHT22;11953;49.010;8.608;2023-04-15T06:19:05;10.60;99.90
23550;DHT22;11953;49.010;8.608;2023-04-15T06:21:51;11.20;99.90
23550;DHT22;11953;49.010;8.608;2023-04-15T06:24:38;10.50;99.90
23550;DHT22;11953;49.010;8.608;2023-04-15T06:27:26;10.80;99.90
23550;DHT22;11953;49.010;8.608;2023-04-15T06:30:13;10.90;99.90
23550;DHT22;11953;49.010;8.608;2023-04-15T06:33:00;10.60;99.90
23550;DHT22;11953;49.010;8.608;2023-04-15T06:35:47;10.50;99.90
23550;DHT22;11953;49.010;8.608;2023-04-15T06:38:35;11.10;99.90
23550;DHT22;11953;49.010;8.608;2023-04-15T06:41:22;12.20;99.90
23550;DHT22;11953;49.010;8.608;2023-04-15T06:44:09;12.90;99.90
23550;DHT22;11953;49.010;8.608;2023-04-15T06:46:56;13.40;99.90
23550;DHT22;11953;49.010;8.608;2023-04-15T06:49:43;13.60;99.90
23550;DHT22;11953;49.010;8.608;2023-04-15T06:52:29;14.10;99.90
23550;DHT22;11953;49.010;8.608;2023-04-15T06:55:15;14.30;99.90
23550;DHT22;11953;49.010;8.608;2023-04-15T06:58:03;14.40;99.90
23550;DHT22;11953;49.010;8.608;2023-04-15T07:00:51;14.70;99.90
23550;DHT22;11953;49.010;8.608;2023-04-15T07:03:38;14.70;99.90
23550;DHT22;11953;49.010;8.608;2023-04-15T07:06:26;14.70;99.90
23550;DHT22;11953;49.010;8.608;2023-04-15T07:09:12;15.00;99.90
23550;DHT22;11953;49.010;8.608;2023-04-15T07:11:59;15.00;99.90
23550;DHT22;11953;49.010;8.608;2023-04-15T07:14:46;15.00;99.10
23550;DHT22;11953;49.010;8.608;2023-04-15T07:17:35;14.90;99.10
23550;DHT22;11953;49.010;8.608;2023-04-15T07:20:22;15.00;99.40
23550;DHT22;11953;49.010;8.608;2023-04-15T07:23:08;15.30;98.50
23550;DHT22;11953;49.010;8.608;2023-04-15T07:25:55;15.30;98.30
23550;DHT22;11953;49.010;8.608;2023-04-15T07:28:41;15.30;98.50
23550;DHT22;11953;49.010;8.608;2023-04-15T07:31:27;15.30;98.20
23550;DHT22;11953;49.010;8.608;2023-04-15T07:34:16;15.00;98.40
23550;DHT22;11953;49.010;8.608;2023-04-15T07:37:03;14.80;98.70
23550;DHT22;11953;49.010;8.608;2023-04-15T07:39:49;14.70;98.40
23550;DHT22;11953;49.010;8.608;2023-04-15T07:42:37;14.40;98.70
23550;DHT22;11953;49.010;8.608;2023-04-15T07:45:25;14.60;98.70
23550;DHT22;11953;49.010;8.608;2023-04-15T07:48:12;15.00;98.30
23550;DHT22;11953;49.010;8.608;2023-04-15T07:51:00;15.30;98.20
23550;DHT22;11953;49.010;8.608;2023-04-15T07:53:48;15.60;97.90
23550;DHT22;11953;49.010;8.608;2023-04-15T07:56:35;15.80;97.50
23550;DHT22;11953;49.010;8.608;2023-04-15T07:59:22;16.10;96.90
23550;DHT22;11953;49.010;8.608;2023-04-15T08:02:09;16.40;96.50
23550;DHT22;11953;49.010;8.608;2023-04-15T08:04:56;16.40;96.30
23550;DHT22;11953;49.010;8.608;2023-04-15T08:07:45;16.60;96.60
23550;DHT22;11953;49.010;8.608;2023-04-15T08:10:32;17.00;96.60
23550;DHT22;11953;49.010;8.608;2023-04-15T08:13:19;17.20;95.70
23550;DHT22;11953;49.010;8.608;2023-04-15T08:16:19;17.20;95.70
23550;DHT22;11953;49.010;8.608;2023-04-15T08:19:07;17.20;95.20
23550;DHT22;11953;49.010;8.608;2023-04-15T08:21:53;17.50;95.20
23550;DHT22;11953;49.010;8.608;2023-04-15T08:24:41;17.50;95.30
23550;DHT22;11953;49.010;8.608;2023-04-15T08:27:28;17.30;95.40
23550;DHT22;11953;49.010;8.608;2023-04-15T08:30:15;17.20;95.70
23550;DHT22;11953;49.010;8.608;2023-04-15T08:33:02;17.40;96.30
23550;DHT22;11953;49.010;8.608;2023-04-15T08:35:49;17.50;95.40
23550;DHT22;11953;49.010;8.608;2023-04-15T08:38:36;17.80;94.60
23550;DHT22;11953;49.010;8.608;2023-04-15T08:41:24;18.10;95.20
23550;DHT22;11953;49.010;8.608;2023-04-15T08:44:12;18.60;93.90
23550;DHT22;11953;49.010;8.608;2023-04-15T08:47:00;18.70;94.00
23550;DHT22;11953;49.010;8.608;2023-04-15T08:49:48;19.40;93.20
23550;DHT22;11953;49.010;8.608;2023-04-15T08:52:39;19.50;93.20
23550;DHT22;11953;49.010;8.608;2023-04-15T08:55:29;19.50;92.70
23550;DHT22;11953;49.010;8.608;2023-04-15T08:58:18;19.20;92.50
23550;DHT22;11953;49.010;8.608;2023-04-15T09:01:04;18.70;92.70
23550;DHT22;11953;49.010;8.608;2023-04-15T09:03:51;18.50;93.40
23550;DHT22;11953;49.010;8.608;2023-04-15T09:06:39;17.90;93.80
23550;DHT22;11953;49.010;8.608;2023-04-15T09:09:26;17.50;94.30
23550;DHT22;11953;49.010;8.608;2023-04-15T09:12:13;17.70;95.10
23550;DHT22;11953;49.010;8.608;2023-04-15T09:15:03;17.90;94.40
23550;DHT22;11953;49.010;8.608;2023-04-15T09:17:49;17.90;94.00
23550;DHT22;11953;49.010;8.608;2023-04-15T09:20:38;18.00;93.70
23550;DHT22;11953;49.010;8.608;2023-04-15T09:23:26;18.10;94.40
23550;DHT22;11953;49.010;8.608;2023-04-15T09:26:15;18.00;94.30
23550;DHT22;11953;49.010;8.608;2023-04-15T09:29:06;17.90;95.00
23550;DHT22;11953;49.010;8.608;2023-04-15T09:31:54;17.70;95.20
23550;DHT22;11953;49.010;8.608;2023-04-15T09:34:41;17.90;95.00
23550;DHT22;11953;49.010;8.608;2023-04-15T09:37:34;18.20;94.70
23550;DHT22;11953;49.010;8.608;2023-04-15T09:40:32;18.50;94.80
23550;DHT22;11953;49.010;8.608;2023-04-15T09:43:18;18.80;94.40
23550;DHT22;11953;49.010;8.608;2023-04-15T09:46:05;18.80;93.70
23550;DHT22;11953;49.010;8.608;2023-04-15T09:49:07;19.00;94.50
23550;DHT22;11953;49.010;8.608;2023-04-15T09:51:58;19.40;93.40
23550;DHT22;11953;49.010;8.608;2023-04-15T09:54:52;19.40;92.70
23550;DHT22;11953;49.010;8.608;2023-04-15T09:57:39;19.30;93.20
23550;DHT22;11953;49.010;8.608;2023-04-15T10:00:28;19.20;92.40
23550;DHT22;11953;49.010;8.608;2023-04-15T10:03:19;19.10;92.60
23550;DHT22;11953;49.010;8.608;2023-04-15T10:06:09;18.70;92.00
23550;DHT22;11953;49.010;8.608;2023-04-15T10:08:56;18.50;92.20
23550;DHT22;11953;49.010;8.608;2023-04-15T10:11:43;18.20;92.30
23550;DHT22;11953;49.010;8.608;2023-04-15T10:14:34;17.80;93.10
23550;DHT22;11953;49.010;8.608;2023-04-15T10:17:22;17.90;93.50
23550;DHT22;11953;49.010;8.608;2023-04-15T10:20:11;18.20;93.10
23550;DHT22;11953;49.010;8.608;2023-04-15T10:23:01;18.50;92.80
23550;DHT22;11953;49.010;8.608;2023-04-15T10:25:48;18.60;92.80
23550;DHT22;11953;49.010;8.608;2023-04-15T10:28:34;18.60;93.10
23550;DHT22;11953;49.010;8.608;2023-04-15T10:31:22;18.50;92.70
23550;DHT22;11953;49.010;8.608;2023-04-15T10:34:09;18.50;92.30
23550;DHT22;11953;49.010;8.608;2023-04-15T10:36:57;18.60;92.30
23550;DHT22;11953;49.010;8.608;2023-04-15T10:39:49;18.40;92.60
23550;DHT22;11953;49.010;8.608;2023-04-15T10:42:36;18.70;93.50
23550;DHT22;11953;49.010;8.608;2023-04-15T10:45:25;19.20;93.00
23550;DHT22;11953;49.010;8.608;2023-04-15T10:48:15;19.00;91.90
23550;DHT22;11953;49.010;8.608;2023-04-15T10:51:01;18.70;92.70
23550;DHT22;11953;49.010;8.608;2023-04-15T10:53:49;18.80;92.50
23550;DHT22;11953;49.010;8.608;2023-04-15T10:56:36;18.70;91.70
23550;DHT22;11953;49.010;8.608;2023-04-15T10:59:23;18.60;92.30
23550;DHT22;11953;49.010;8.608;2023-04-15T11:02:12;18.50;92.00
23550;DHT22;11953;49.010;8.608;2023-04-15T11:05:01;18.30;92.30
23550;DHT22;11953;49.010;8.608;2023-04-15T11:07:50;18.10;92.70
23550;DHT22;11953;49.010;8.608;2023-04-15T11:10:52;17.80;92.60
23550;DHT22;11953;49.010;8.608;2023-04-15T11:13:48;17.60;93.40
23550;DHT22;11953;49.010;8.608;2023-04-15T11:16:41;17.20;91.90
23550;DHT22;11953;49.010;8.608;2023-04-15T11:19:35;16.90;92.30
23550;DHT22;11953;49.010;8.608;2023-04-15T11:22:22;17.20;91.30
23550;DHT22;11953;49.010;8.608;2023-04-15T11:25:09;17.40;92.10
23550;DHT22;11953;49.010;8.608;2023-04-15T11:27:55;17.60;91.20
23550;DHT22;11953;49.010;8.608;2023-04-15T11:30:44;17.90;91.30
23550;DHT22;11953;49.010;8.608;2023-04-15T11:33:31;17.90;91.70
23550;DHT22;11953;49.010;8.608;2023-04-15T11:36:17;18.10;90.90
23550;DHT22;11953;49.010;8.608;2023-04-15T11:39:06;18.30;91.00
23550;DHT22;11953;49.010;8.608;2023-04-15T11:41:52;18.40;90.40
23550;DHT22;11953;49.010;8.608;2023-04-15T11:44:39;18.50;91.30
23550;DHT22;11953;49.010;8.608;2023-04-15T11:47:27;18.90;90.70
23550;DHT22;11953;49.010;8.608;2023-04-15T11:50:15;19.00;90.20
23550;DHT22;11953;49.010;8.608;2023-04-15T11:53:03;18.70;86.20
23550;DHT22;11953;49.010;8.608;2023-04-15T11:55:53;18.40;87.30
23550;DHT22;11953;49.010;8.608;2023-04-15T11:58:39;18.20;88.50
23550;DHT22;11953;49.010;8.608;2023-04-15T12:01:31;18.40;89.30
23550;DHT22;11953;49.010;8.608;2023-04-15T12:04:19;18.60;88.80
23550;DHT22;11953;49.010;8.608;2023-04-15T12:07:10;18.80;88.90
23550;DHT22;11953;49.010;8.608;2023-04-15T12:09:57;19.00;87.30
23550;DHT22;11953;49.010;8.608;2023-04-15T12:12:48;19.10;86.00
23550;DHT22;11953;49.010;8.608;2023-04-15T12:15:37;18.80;82.30
23550;DHT22;11953;49.010;8.608;2023-04-15T12:18:24;18.50;82.50
23550;DHT22;11953;49.010;8.608;2023-04-15T12:21:13;18.60;84.20
23550;DHT22;11953;49.010;8.608;2023-04-15T12:24:02;18.70;84.50
23550;DHT22;11953;49.010;8.608;2023-04-15T12:26:51;18.40;83.10
23550;DHT22;11953;49.010;8.608;2023-04-15T12:29:40;17.90;83.00
23550;DHT22;11953;49.010;8.608;2023-04-15T12:32:27;17.80;80.20
23550;DHT22;11953;49.010;8.608;2023-04-15T12:35:14;17.50;79.20
23550;DHT22;11953;49.010;8.608;2023-04-15T12:38:04;17.70;80.00
23550;DHT22;11953;49.010;8.608;2023-04-15T12:40:53;17.80;75.90
23550;DHT22;11953;49.010;8.608;2023-04-15T12:43:40;18.00;74.30
23550;DHT22;11953;49.010;8.608;2023-04-15T12:46:27;18.00;74.20
23550;DHT22;11953;49.010;8.608;2023-04-15T12:49:13;17.80;73.90
23550;DHT22;11953;49.010;8.608;2023-04-15T12:52:01;17.40;73.30
23550;DHT22;11953;49.010;8.608;2023-04-15T12:54:49;17.00;74.30
23550;DHT22;11953;49.010;8.608;2023-04-15T12:57:36;16.80;77.10
23550;DHT22;11953;49.010;8.608;2023-04-15T13:00:22;16.70;77.50
23550;DHT22;11953;49.010;8.608;2023-04-15T13:03:09;16.60;73.00
23550;DHT22;11953;49.010;8.608;2023-04-15T13:05:56;16.40;71.70
23550;DHT22;11953;49.010;8.608;2023-04-15T13:08:43;16.40;73.10
23550;DHT22;11953;49.010;8.608;2023-04-15T13:11:43;16.20;70.30
23550;DHT22;11953;49.010;8.608;2023-04-15T13:14:30;16.10;70.00
23550;DHT22;11953;49.010;8.608;2023-04-15T13:17:16;15.80;73.90
23550;DHT22;11953;49.010;8.608;2023-04-15T13:20:05;15.70;76.30
23550;DHT22;11953;49.010;8.608;2023-04-15T13:22:53;15.70;78.20
23550;DHT22;11953;49.010;8.608;2023-04-15T13:25:39;15.60;77.70
23550;DHT22;11953;49.010;8.608;2023-04-15T13:28:28;15.50;78.60
23550;DHT22;11953;49.010;8.608;2023-04-15T13:31:14;15.50;79.40
23550;DHT22;11953;49.010;8.608;2023-04-15T13:34:01;15.50;77.80
23550;DHT22;11953;49.010;8.608;2023-04-15T13:36:48;15.40;81.50
23550;DHT22;11953;49.010;8.608;2023-04-15T13:39:34;15.40;82.10
23550;DHT22;11953;49.010;8.608;2023-04-15T13:42:21;15.40;82.70
23550;DHT22;11953;49.010;8.608;2023-04-15T13:45:09;15.40;82.10
23550;DHT22;11953;49.010;8.608;2023-04-15T13:47:56;15.30;86.40
23550;DHT22;11953;49.010;8.608;2023-04-15T13:50:43;15.30;85.90
23550;DHT22;11953;49.010;8.608;2023-04-15T13:53:30;15.20;87.10
23550;DHT22;11953;49.010;8.608;2023-04-15T13:56:23;15.00;86.80
23550;DHT22;11953;49.010;8.608;2023-04-15T13:59:10;14.90;87.70
23550;DHT22;11953;49.010;8.608;2023-04-15T14:01:58;14.90;88.70
23550;DHT22;11953;49.010;8.608;2023-04-15T14:04:45;14.90;88.20
23550;DHT22;11953;49.010;8.608;2023-04-15T14:07:32;14.80;89.40
23550;DHT22;11953;49.010;8.608;2023-04-15T14:10:19;14.70;89.40
23550;DHT22;11953;49.010;8.608;2023-04-15T14:13:05;14.60;89.10
23550;DHT22;11953;49.010;8.608;2023-04-15T14:15:52;14.60;89.60
23550;DHT22;11953;49.010;8.608;2023-04-15T14:18:40;14.60;89.30
23550;DHT22;11953;49.010;8.608;2023-04-15T14:21:28;14.60;90.00
23550;DHT22;11953;49.010;8.608;2023-04-15T14:24:16;14.60;90.10
23550;DHT22;11953;49.010;8.608;2023-04-15T14:27:02;14.60;90.20
23550;DHT22;11953;49.010;8.608;2023-04-15T14:29:49;14.70;90.70
23550;DHT22;11953;49.010;8.608;2023-04-15T14:32:37;14.90;90.50
23550;DHT22;11953;49.010;8.608;2023-04-15T14:35:25;15.00;90.50
23550;DHT22;11953;49.010;8.608;2023-04-15T14:38:12;14.80;89.50
23550;DHT22;11953;49.010;8.608;2023-04-15T14:40:59;14.90;89.90
23550;DHT22;11953;49.010;8.608;2023-04-15T14:43:46;14.70;87.70
23550;DHT22;11953;49.010;8.608;2023-04-15T14:46:33;14.50;87.50
23550;DHT22;11953;49.010;8.608;2023-04-15T14:49:20;14.50;88.70
23550;DHT22;11953;49.010;8.608;2023-04-15T14:52:08;14.60;88.90
23550;DHT22;11953;49.010;8.608;2023-04-15T14:54:55;14.60;89.00
23550;DHT22;11953;49.010;8.608;2023-04-15T14:57:42;14.60;89.30
23550;DHT22;11953;49.010;8.608;2023-04-15T15:00:29;14.60;89.70
23550;DHT22;11953;49.010;8.608;2023-04-15T15:03:15;14.60;88.30
23550;DHT22;11953;49.010;8.608;2023-04-15T15:06:03;14.60;87.90
23550;DHT22;11953;49.010;8.608;2023-04-15T15:08:50;14.60;88.40
23550;DHT22;11953;49.010;8.608;2023-04-15T15:11:37;14.60;88.00
23550;DHT22;11953;49.010;8.608;2023-04-15T15:14:23;14.40;87.00
23550;DHT22;11953;49.010;8.608;2023-04-15T15:17:10;14.30;87.50
23550;DHT22;11953;49.010;8.608;2023-04-15T15:19:57;14.40;89.30
23550;DHT22;11953;49.010;8.608;2023-04-15T15:22:43;14.40;88.70
23550;DHT22;11953;49.010;8.608;2023-04-15T15:25:31;14.20;88.80
23550;DHT22;11953;49.010;8.608;2023-04-15T15:28:18;14.20;88.40
23550;DHT22;11953;49.010;8.608;2023-04-15T15:31:06;14.10;90.00
23550;DHT22;11953;49.010;8.608;2023-04-15T15:33:53;14.20;90.40
23550;DHT22;11953;49.010;8.608;2023-04-15T15:36:39;14.20;90.30
23550;DHT22;11953;49.010;8.608;2023-04-15T15:39:26;14.20;90.90
23550;DHT22;11953;49.010;8.608;2023-04-15T15:42:14;14.10;91.00
23550;DHT22;11953;49.010;8.608;2023-04-15T15:45:02;14.10;91.30
23550;DHT22;11953;49.010;8.608;2023-04-15T15:47:49;14.10;91.60
23550;DHT22;11953;49.010;8.608;2023-04-15T15:50:36;13.80;93.70
23550;DHT22;11953;49.010;8.608;2023-04-15T15:53:22;13.70;95.30
23550;DHT22;11953;49.010;8.608;2023-04-15T15:56:10;13.70;96.10
23550;DHT22;11953;49.010;8.608;2023-04-15T15:58:58;13.40;96.80
23550;DHT22;11953;49.010;8.608;2023-04-15T16:01:45;13.40;98.60
23550;DHT22;11953;49.010;8.608;2023-04-15T16:04:32;13.30;99.90
23550;DHT22;11953;49.010;8.608;2023-04-15T16:07:19;13.20;99.90
23550;DHT22;11953;49.010;8.608;2023-04-15T16:10:06;13.20;99.90
23550;DHT22;11953;49.010;8.608;2023-04-15T16:12:53;12.80;99.90
23550;DHT22;11953;49.010;8.608;2023-04-15T16:15:41;12.70;99.90
23550;DHT22;11953;49.010;8.608;2023-04-15T16:18:28;12.80;99.90
23550;DHT22;11953;49.010;8.608;2023-04-15T16:21:15;12.70;99.90
23550;DHT22;11953;49.010;8.608;2023-04-15T16:24:01;12.40;99.90
23550;DHT22;11953;49.010;8.608;2023-04-15T16:26:48;12.40;99.90
23550;DHT22;11953;49.010;8.608;2023-04-15T16:29:34;12.30;99.90
23550;DHT22;11953;49.010;8.608;2023-04-15T16:32:23;12.30;99.90
23550;DHT22;11953;49.010;8.608;2023-04-15T16:35:10;12.20;99.90
23550;DHT22;11953;49.010;8.608;2023-04-15T16:37:56;12.20;99.90
23550;DHT22;11953;49.010;8.608;2023-04-15T16:40:43;12.20;99.90
23550;DHT22;11953;49.010;8.608;2023-04-15T16:43:30;12.30;99.90
23550;DHT22;11953;49.010;8.608;2023-04-15T16:46:16;12.20;99.90
23550;DHT22;11953;49.010;8.608;2023-04-15T16:49:04;12.10;99.90
23550;DHT22;11953;49.010;8.608;2023-04-15T16:51:51;12.10;99.90
23550;DHT22;11953;49.010;8.608;2023-04-15T16:54:39;12.00;99.90
23550;DHT22;11953;49.010;8.608;2023-04-15T16:57:26;11.90;99.90
23550;DHT22;11953;49.010;8.608;2023-04-15T17:00:33;11.90;99.90
23550;DHT22;11953;49.010;8.608;2023-04-15T17:03:21;11.90;99.90
23550;DHT22;11953;49.010;8.608;2023-04-15T17:06:09;11.80;99.90
23550;DHT22;11953;49.010;8.608;2023-04-15T17:08:55;11.90;99.90
23550;DHT22;11953;49.010;8.608;2023-04-15T17:11:42;11.90;99.90
23550;DHT22;11953;49.010;8.608;2023-04-15T17:14:30;11.90;99.90
23550;DHT22;11953;49.010;8.608;2023-04-15T17:17:17;12.00;99.90
23550;DHT22;11953;49.010;8.608;2023-04-15T17:20:05;11.90;99.90
23550;DHT22;11953;49.010;8.608;2023-04-15T17:22:53;11.90;99.90
23550;DHT22;11953;49.010;8.608;2023-04-15T17:25:40;11.90;99.90
23550;DHT22;11953;49.010;8.608;2023-04-15T17:28:27;11.90;99.90
23550;DHT22;11953;49.010;8.608;2023-04-15T17:31:14;11.80;99.90
23550;DHT22;11953;49.010;8.608;2023-04-15T17:34:01;11.80;99.90
23550;DHT22;11953;49.010;8.608;2023-04-15T17:36:55;11.70;99.90
23550;DHT22;11953;49.010;8.608;2023-04-15T17:39:43;11.60;99.90
23550;DHT22;11953;49.010;8.608;2023-04-15T17:42:30;11.60;99.90
23550;DHT22;11953;49.010;8.608;2023-04-15T17:45:16;11.60;99.90